sensor_id;sensor_type;location;lat;lon;timestamp;P1;durP1;ratioP1;P2;durP2;ratioP2
69419;SDS011;71621;52.030;113.516;2023-10-19T00:00:49;7.82;;;2.33;;
69419;SDS011;71621;52.030;113.516;2023-10-19T00:03:58;6.75;;;1.90;;
69419;SDS011;71621;52.030;113.516;2023-10-19T00:07:02;8.40;;;2.63;;
69419;SDS011;71621;52.030;113.516;2023-10-19T00:10:09;8.77;;;2.73;;
69419;SDS011;71621;52.030;113.516;2023-10-19T00:13:17;7.97;;;2.65;;
69419;SDS011;71621;52.030;113.516;2023-10-19T00:16:22;7.65;;;2.45;;
69419;SDS011;71621;52.030;113.516;2023-10-19T00:19:27;13.07;;;2.80;;
69419;SDS011;71621;52.030;113.516;2023-10-19T00:22:33;11.05;;;2.65;;
69419;SDS011;71621;52.030;113.516;2023-10-19T00:25:42;8.20;;;2.07;;
69419;SDS011;71621;52.030;113.516;2023-10-19T00:28:47;7.53;;;1.73;;
69419;SDS011;71621;52.030;113.516;2023-10-19T00:31:56;6.95;;;1.70;;
69419;SDS011;71621;52.030;113.516;2023-10-19T00:35:01;7.03;;;1.33;;
69419;SDS011;71621;52.030;113.516;2023-10-19T00:38:11;5.20;;;1.58;;
69419;SDS011;71621;52.030;113.516;2023-10-19T00:41:29;4.73;;;1.70;;
69419;SDS011;71621;52.030;113.516;2023-10-19T00:44:33;5.00;;;2.00;;
69419;SDS011;71621;52.030;113.516;2023-10-19T00:47:51;8.98;;;2.10;;
69419;SDS011;71621;52.030;113.516;2023-10-19T00:50:55;6.78;;;1.73;;
69419;SDS011;71621;52.030;113.516;2023-10-19T00:54:14;5.57;;;1.48;;
69419;SDS011;71621;52.030;113.516;2023-10-19T00:58:01;7.63;;;1.90;;
69419;SDS011;71621;52.030;113.516;2023-10-19T01:01:12;5.35;;;1.60;;
69419;SDS011;71621;52.030;113.516;2023-10-19T01:04:17;5.22;;;2.05;;
69419;SDS011;71621;52.030;113.516;2023-10-19T01:07:26;5.53;;;1.73;;
69419;SDS011;71621;52.030;113.516;2023-10-19T01:10:34;6.47;;;1.30;;
69419;SDS011;71621;52.030;113.516;2023-10-19T01:13:38;5.10;;;1.20;;
69419;SDS011;71621;52.030;113.516;2023-10-19T01:16:48;9.57;;;1.58;;
69419;SDS011;71621;52.030;113.516;2023-10-19T01:19:59;6.03;;;1.38;;
69419;SDS011;71621;52.030;113.516;2023-10-19T01:23:08;5.78;;;1.63;;
69419;SDS011;71621;52.030;113.516;2023-10-19T01:26:13;5.28;;;1.40;;
69419;SDS011;71621;52.030;113.516;2023-10-19T01:29:24;5.80;;;1.60;;
69419;SDS011;71621;52.030;113.516;2023-10-19T01:32:31;7.32;;;1.70;;
69419;SDS011;71621;52.030;113.516;2023-10-19T01:35:34;11.45;;;2.25;;
69419;SDS011;71621;52.030;113.516;2023-10-19T01:38:57;7.07;;;1.52;;
69419;SDS011;71621;52.030;113.516;2023-10-19T01:42:03;11.65;;;1.90;;
69419;SDS011;71621;52.030;113.516;2023-10-19T01:45:07;9.03;;;2.37;;
69419;SDS011;71621;52.030;113.516;2023-10-19T01:48:14;7.97;;;2.42;;
69419;SDS011;71621;52.030;113.516;2023-10-19T01:51:19;8.93;;;1.98;;
69419;SDS011;71621;52.030;113.516;2023-10-19T01:54:23;8.20;;;1.83;;
69419;SDS011;71621;52.030;113.516;2023-10-19T01:57:28;8.85;;;2.60;;
69419;SDS011;71621;52.030;113.516;2023-10-19T02:00:31;7.33;;;2.23;;
69419;SDS011;71621;52.030;113.516;2023-10-19T02:03:35;9.10;;;2.97;;
69419;SDS011;71621;52.030;113.516;2023-10-19T02:06:41;4.40;;;1.63;;
69419;SDS011;71621;52.030;113.516;2023-10-19T02:09:44;8.30;;;1.80;;
69419;SDS011;71621;52.030;113.516;2023-10-19T02:12:50;7.22;;;2.00;;
69419;SDS011;71621;52.030;113.516;2023-10-19T02:16:07;23.17;;;4.47;;
69419;SDS011;71621;52.030;113.516;2023-10-19T02:19:13;19.27;;;5.20;;
69419;SDS011;71621;52.030;113.516;2023-10-19T02:22:17;6.82;;;1.90;;
69419;SDS011;71621;52.030;113.516;2023-10-19T02:25:21;22.20;;;5.88;;
69419;SDS011;71621;52.030;113.516;2023-10-19T02:28:24;3.97;;;1.30;;
69419;SDS011;71621;52.030;113.516;2023-10-19T02:31:34;4.47;;;0.60;;
69419;SDS011;71621;52.030;113.516;2023-10-19T02:34:42;2.17;;;0.40;;
69419;SDS011;71621;52.030;113.516;2023-10-19T02:37:46;14.48;;;1.95;;
69419;SDS011;71621;52.030;113.516;2023-10-19T02:40:49;5.60;;;0.90;;
69419;SDS011;71621;52.030;113.516;2023-10-19T02:43:53;1.15;;;0.22;;
69419;SDS011;71621;52.030;113.516;2023-10-19T02:47:35;3.50;;;0.73;;
69419;SDS011;71621;52.030;113.516;2023-10-19T02:50:38;4.65;;;0.70;;
69419;SDS011;71621;52.030;113.516;2023-10-19T02:53:42;2.75;;;0.40;;
69419;SDS011;71621;52.030;113.516;2023-10-19T02:56:50;3.10;;;0.50;;
69419;SDS011;71621;52.030;113.516;2023-10-19T02:59:59;5.35;;;0.73;;
69419;SDS011;71621;52.030;113.516;2023-10-19T03:03:03;7.30;;;0.60;;
69419;SDS011;71621;52.030;113.516;2023-10-19T03:06:09;3.20;;;0.70;;
69419;SDS011;71621;52.030;113.516;2023-10-19T03:09:13;5.20;;;0.57;;
69419;SDS011;71621;52.030;113.516;2023-10-19T03:12:32;2.67;;;0.30;;
69419;SDS011;71621;52.030;113.516;2023-10-19T03:15:35;4.00;;;0.80;;
69419;SDS011;71621;52.030;113.516;2023-10-19T03:18:45;5.07;;;0.73;;
69419;SDS011;71621;52.030;113.516;2023-10-19T03:21:49;2.33;;;0.60;;
69419;SDS011;71621;52.030;113.516;2023-10-19T03:24:53;4.28;;;1.00;;
69419;SDS011;71621;52.030;113.516;2023-10-19T03:28:23;6.28;;;1.50;;
69419;SDS011;71621;52.030;113.516;2023-10-19T03:31:30;3.60;;;0.70;;
69419;SDS011;71621;52.030;113.516;2023-10-19T03:34:35;2.17;;;0.43;;
69419;SDS011;71621;52.030;113.516;2023-10-19T03:37:41;11.07;;;4.32;;
69419;SDS011;71621;52.030;113.516;2023-10-19T03:40:45;5.28;;;1.00;;
69419;SDS011;71621;52.030;113.516;2023-10-19T03:43:54;25.77;;;11.63;;
69419;SDS011;71621;52.030;113.516;2023-10-19T03:47:00;12.20;;;4.70;;
69419;SDS011;71621;52.030;113.516;2023-10-19T03:50:07;24.67;;;12.40;;
69419;SDS011;71621;52.030;113.516;2023-10-19T03:53:17;10.45;;;5.15;;
69419;SDS011;71621;52.030;113.516;2023-10-19T03:56:21;4.10;;;1.10;;
69419;SDS011;71621;52.030;113.516;2023-10-19T03:59:24;3.05;;;0.80;;
69419;SDS011;71621;52.030;113.516;2023-10-19T04:02:37;8.38;;;2.90;;
69419;SDS011;71621;52.030;113.516;2023-10-19T04:05:41;9.00;;;2.80;;
69419;SDS011;71621;52.030;113.516;2023-10-19T04:08:49;4.53;;;1.73;;
69419;SDS011;71621;52.030;113.516;2023-10-19T04:11:56;5.40;;;1.45;;
69419;SDS011;71621;52.030;113.516;2023-10-19T04:15:00;7.40;;;1.73;;
69419;SDS011;71621;52.030;113.516;2023-10-19T04:18:19;3.67;;;0.70;;
69419;SDS011;71621;52.030;113.516;2023-10-19T04:21:24;5.93;;;0.97;;
69419;SDS011;71621;52.030;113.516;2023-10-19T04:24:28;8.60;;;2.00;;
69419;SDS011;71621;52.030;113.516;2023-10-19T04:27:35;7.95;;;1.50;;
69419;SDS011;71621;52.030;113.516;2023-10-19T04:30:39;8.60;;;1.80;;
69419;SDS011;71621;52.030;113.516;2023-10-19T04:33:43;6.22;;;1.80;;
69419;SDS011;71621;52.030;113.516;2023-10-19T04:36:48;8.10;;;1.97;;
69419;SDS011;71621;52.030;113.516;2023-10-19T04:39:51;3.90;;;0.80;;
69419;SDS011;71621;52.030;113.516;2023-10-19T04:42:55;3.28;;;0.60;;
69419;SDS011;71621;52.030;113.516;2023-10-19T04:45:59;4.53;;;1.20;;
69419;SDS011;71621;52.030;113.516;2023-10-19T04:49:04;6.82;;;1.88;;
69419;SDS011;71621;52.030;113.516;2023-10-19T04:52:07;7.00;;;2.57;;
69419;SDS011;71621;52.030;113.516;2023-10-19T04:55:11;3.60;;;1.05;;
69419;SDS011;71621;52.030;113.516;2023-10-19T04:58:14;7.95;;;1.30;;
69419;SDS011;71621;52.030;113.516;2023-10-19T05:01:18;8.07;;;1.17;;
69419;SDS011;71621;52.030;113.516;2023-10-19T05:04:21;4.95;;;1.50;;
69419;SDS011;71621;52.030;113.516;2023-10-19T05:07:27;6.67;;;1.20;;
69419;SDS011;71621;52.030;113.516;2023-10-19T05:10:31;3.55;;;0.90;;
69419;SDS011;71621;52.030;113.516;2023-10-19T05:13:36;3.25;;;0.47;;
69419;SDS011;71621;52.030;113.516;2023-10-19T05:16:39;2.78;;;0.50;;
69419;SDS011;71621;52.030;113.516;2023-10-19T05:19:43;2.80;;;0.80;;
69419;SDS011;71621;52.030;113.516;2023-10-19T05:22:47;3.87;;;0.60;;
69419;SDS011;71621;52.030;113.516;2023-10-19T05:25:51;3.58;;;0.70;;
69419;SDS011;71621;52.030;113.516;2023-10-19T05:28:56;2.92;;;0.70;;
69419;SDS011;71621;52.030;113.516;2023-10-19T05:31:59;4.53;;;1.02;;
69419;SDS011;71621;52.030;113.516;2023-10-19T05:35:05;2.65;;;0.57;;
69419;SDS011;71621;52.030;113.516;2023-10-19T05:38:09;4.80;;;1.30;;
69419;SDS011;71621;52.030;113.516;2023-10-19T05:41:12;7.00;;;1.30;;
69419;SDS011;71621;52.030;113.516;2023-10-19T05:44:17;4.28;;;1.20;;
69419;SDS011;71621;52.030;113.516;2023-10-19T05:47:20;5.63;;;1.70;;
69419;SDS011;71621;52.030;113.516;2023-10-19T05:50:24;4.18;;;1.35;;
69419;SDS011;71621;52.030;113.516;2023-10-19T05:53:27;10.60;;;2.23;;
69419;SDS011;71621;52.030;113.516;2023-10-19T05:56:32;7.20;;;1.30;;
69419;SDS011;71621;52.030;113.516;2023-10-19T05:59:39;7.22;;;2.03;;
69419;SDS011;71621;52.030;113.516;2023-10-19T06:02:44;4.88;;;1.00;;
69419;SDS011;71621;52.030;113.516;2023-10-19T06:05:48;10.65;;;1.90;;
69419;SDS011;71621;52.030;113.516;2023-10-19T06:08:52;7.30;;;2.00;;
69419;SDS011;71621;52.030;113.516;2023-10-19T06:11:56;9.13;;;2.17;;
69419;SDS011;71621;52.030;113.516;2023-10-19T06:15:00;6.72;;;1.77;;
69419;SDS011;71621;52.030;113.516;2023-10-19T06:18:03;4.13;;;0.80;;
69419;SDS011;71621;52.030;113.516;2023-10-19T06:21:08;4.78;;;0.85;;
69419;SDS011;71621;52.030;113.516;2023-10-19T06:24:12;2.80;;;0.67;;
69419;SDS011;71621;52.030;113.516;2023-10-19T06:27:17;1.92;;;0.43;;
69419;SDS011;71621;52.030;113.516;2023-10-19T06:30:21;3.35;;;0.90;;
69419;SDS011;71621;52.030;113.516;2023-10-19T06:33:25;3.90;;;1.38;;
69419;SDS011;71621;52.030;113.516;2023-10-19T06:36:29;4.68;;;1.10;;
69419;SDS011;71621;52.030;113.516;2023-10-19T06:39:32;3.10;;;0.73;;
69419;SDS011;71621;52.030;113.516;2023-10-19T06:42:36;3.85;;;0.80;;
69419;SDS011;71621;52.030;113.516;2023-10-19T06:45:39;10.90;;;6.43;;
69419;SDS011;71621;52.030;113.516;2023-10-19T06:48:43;3.60;;;1.58;;
69419;SDS011;71621;52.030;113.516;2023-10-19T06:51:47;5.57;;;2.40;;
69419;SDS011;71621;52.030;113.516;2023-10-19T06:54:50;2.10;;;0.60;;
69419;SDS011;71621;52.030;113.516;2023-10-19T06:57:55;2.40;;;0.90;;
69419;SDS011;71621;52.030;113.516;2023-10-19T07:00:58;5.53;;;0.82;;
69419;SDS011;71621;52.030;113.516;2023-10-19T07:04:08;9.70;;;1.33;;
69419;SDS011;71621;52.030;113.516;2023-10-19T07:07:11;7.32;;;0.98;;
69419;SDS011;71621;52.030;113.516;2023-10-19T07:10:16;3.90;;;0.90;;
69419;SDS011;71621;52.030;113.516;2023-10-19T07:13:20;2.97;;;0.70;;
69419;SDS011;71621;52.030;113.516;2023-10-19T07:16:25;3.10;;;0.80;;
69419;SDS011;71621;52.030;113.516;2023-10-19T07:19:29;2.90;;;0.98;;
69419;SDS011;71621;52.030;113.516;2023-10-19T07:22:33;3.55;;;0.90;;
69419;SDS011;71621;52.030;113.516;2023-10-19T07:25:40;23.03;;;1.00;;
69419;SDS011;71621;52.030;113.516;2023-10-19T07:28:47;2.88;;;0.60;;
69419;SDS011;71621;52.030;113.516;2023-10-19T07:31:50;5.45;;;1.50;;
69419;SDS011;71621;52.030;113.516;2023-10-19T07:34:58;4.55;;;1.73;;
69419;SDS011;71621;52.030;113.516;2023-10-19T07:38:01;6.65;;;1.90;;
69419;SDS011;71621;52.030;113.516;2023-10-19T07:41:07;4.57;;;1.43;;
69419;SDS011;71621;52.030;113.516;2023-10-19T07:44:12;6.57;;;1.10;;
69419;SDS011;71621;52.030;113.516;2023-10-19T07:47:16;7.93;;;4.00;;
69419;SDS011;71621;52.030;113.516;2023-10-19T07:50:19;4.30;;;1.55;;
69419;SDS011;71621;52.030;113.516;2023-10-19T07:53:25;6.72;;;2.03;;
69419;SDS011;71621;52.030;113.516;2023-10-19T07:56:28;7.97;;;1.80;;
69419;SDS011;71621;52.030;113.516;2023-10-19T07:59:32;9.07;;;1.80;;
69419;SDS011;71621;52.030;113.516;2023-10-19T08:02:36;9.30;;;2.60;;
69419;SDS011;71621;52.030;113.516;2023-10-19T08:05:48;8.18;;;1.80;;
69419;SDS011;71621;52.030;113.516;2023-10-19T08:08:52;10.73;;;2.13;;
69419;SDS011;71621;52.030;113.516;2023-10-19T08:11:55;7.67;;;3.30;;
69419;SDS011;71621;52.030;113.516;2023-10-19T08:15:02;7.78;;;2.88;;
69419;SDS011;71621;52.030;113.516;2023-10-19T08:18:06;6.75;;;2.20;;
69419;SDS011;71621;52.030;113.516;2023-10-19T08:21:10;8.73;;;3.90;;
69419;SDS011;71621;52.030;113.516;2023-10-19T08:24:15;7.25;;;2.67;;
69419;SDS011;71621;52.030;113.516;2023-10-19T08:27:20;17.27;;;8.80;;
69419;SDS011;71621;52.030;113.516;2023-10-19T08:30:24;12.43;;;4.60;;
69419;SDS011;71621;52.030;113.516;2023-10-19T08:33:29;7.82;;;3.35;;
69419;SDS011;71621;52.030;113.516;2023-10-19T08:36:39;15.40;;;2.85;;
69419;SDS011;71621;52.030;113.516;2023-10-19T08:39:43;4.88;;;2.65;;
69419;SDS011;71621;52.030;113.516;2023-10-19T08:42:46;9.63;;;2.33;;
69419;SDS011;71621;52.030;113.516;2023-10-19T08:45:50;12.82;;;2.60;;
69419;SDS011;71621;52.030;113.516;2023-10-19T08:48:57;8.90;;;2.10;;
69419;SDS011;71621;52.030;113.516;2023-10-19T08:52:02;6.38;;;2.10;;
69419;SDS011;71621;52.030;113.516;2023-10-19T08:55:09;15.95;;;3.38;;
69419;SDS011;71621;52.030;113.516;2023-10-19T08:58:15;21.40;;;4.17;;
69419;SDS011;71621;52.030;113.516;2023-10-19T09:01:21;27.90;;;5.78;;
69419;SDS011;71621;52.030;113.516;2023-10-19T09:04:26;25.70;;;5.90;;
69419;SDS011;71621;52.030;113.516;2023-10-19T09:07:31;27.80;;;6.55;;
69419;SDS011;71621;52.030;113.516;2023-10-19T09:10:37;11.75;;;4.35;;
69419;SDS011;71621;52.030;113.516;2023-10-19T09:16:54;16.00;;;4.43;;
69419;SDS011;71621;52.030;113.516;2023-10-19T09:19:59;22.38;;;6.18;;
69419;SDS011;71621;52.030;113.516;2023-10-19T09:23:05;20.08;;;6.03;;
69419;SDS011;71621;52.030;113.516;2023-10-19T09:26:10;11.88;;;4.80;;
69419;SDS011;71621;52.030;113.516;2023-10-19T09:29:17;15.67;;;4.40;;
69419;SDS011;71621;52.030;113.516;2023-10-19T09:32:21;13.30;;;4.93;;
69419;SDS011;71621;52.030;113.516;2023-10-19T09:35:25;17.92;;;5.32;;
69419;SDS011;71621;52.030;113.516;2023-10-19T09:38:30;21.45;;;6.07;;
69419;SDS011;71621;52.030;113.516;2023-10-19T09:41:34;19.35;;;5.38;;
69419;SDS011;71621;52.030;113.516;2023-10-19T09:44:44;19.87;;;5.20;;
69419;SDS011;71621;52.030;113.516;2023-10-19T09:47:51;18.23;;;4.38;;
69419;SDS011;71621;52.030;113.516;2023-10-19T09:50:57;17.63;;;4.97;;
69419;SDS011;71621;52.030;113.516;2023-10-19T09:54:26;19.92;;;6.40;;
69419;SDS011;71621;52.030;113.516;2023-10-19T10:00:51;12.57;;;5.20;;
69419;SDS011;71621;52.030;113.516;2023-10-19T10:03:55;12.77;;;4.15;;
69419;SDS011;71621;52.030;113.516;2023-10-19T10:07:00;15.98;;;6.10;;
69419;SDS011;71621;52.030;113.516;2023-10-19T10:10:03;15.90;;;5.25;;
69419;SDS011;71621;52.030;113.516;2023-10-19T10:16:30;31.23;;;14.57;;
69419;SDS011;71621;52.030;113.516;2023-10-19T10:19:37;13.77;;;5.30;;
69419;SDS011;71621;52.030;113.516;2023-10-19T10:22:41;34.42;;;11.57;;
69419;SDS011;71621;52.030;113.516;2023-10-19T10:25:45;14.48;;;5.88;;
69419;SDS011;71621;52.030;113.516;2023-10-19T10:32:42;17.27;;;9.73;;
69419;SDS011;71621;52.030;113.516;2023-10-19T10:35:59;22.88;;;5.38;;
69419;SDS011;71621;52.030;113.516;2023-10-19T10:39:03;17.85;;;8.25;;
69419;SDS011;71621;52.030;113.516;2023-10-19T10:42:17;12.73;;;5.90;;
69419;SDS011;71621;52.030;113.516;2023-10-19T10:45:21;15.18;;;6.60;;
69419;SDS011;71621;52.030;113.516;2023-10-19T10:48:24;19.57;;;8.13;;
69419;SDS011;71621;52.030;113.516;2023-10-19T10:51:28;16.13;;;6.97;;
69419;SDS011;71621;52.030;113.516;2023-10-19T10:54:32;18.63;;;8.90;;
69419;SDS011;71621;52.030;113.516;2023-10-19T10:57:36;22.67;;;9.40;;
69419;SDS011;71621;52.030;113.516;2023-10-19T11:00:43;19.65;;;8.27;;
69419;SDS011;71621;52.030;113.516;2023-10-19T11:03:49;17.33;;;8.00;;
69419;SDS011;71621;52.030;113.516;2023-10-19T11:06:54;21.70;;;9.25;;
69419;SDS011;71621;52.030;113.516;2023-10-19T11:09:59;29.08;;;14.02;;
69419;SDS011;71621;52.030;113.516;2023-10-19T11:13:03;12.57;;;4.80;;
69419;SDS011;71621;52.030;113.516;2023-10-19T11:16:07;22.25;;;10.02;;
69419;SDS011;71621;52.030;113.516;2023-10-19T11:19:12;33.13;;;21.10;;
69419;SDS011;71621;52.030;113.516;2023-10-19T11:22:15;28.10;;;16.73;;
69419;SDS011;71621;52.030;113.516;2023-10-19T11:25:19;19.55;;;9.90;;
69419;SDS011;71621;52.030;113.516;2023-10-19T11:28:24;20.27;;;8.55;;
69419;SDS011;71621;52.030;113.516;2023-10-19T11:31:31;22.02;;;8.82;;
69419;SDS011;71621;52.030;113.516;2023-10-19T11:34:40;17.93;;;8.03;;
69419;SDS011;71621;52.030;113.516;2023-10-19T11:37:47;21.05;;;10.27;;
69419;SDS011;71621;52.030;113.516;2023-10-19T11:40:52;14.45;;;6.57;;
69419;SDS011;71621;52.030;113.516;2023-10-19T11:43:56;20.10;;;7.53;;
69419;SDS011;71621;52.030;113.516;2023-10-19T11:47:00;14.20;;;6.18;;
69419;SDS011;71621;52.030;113.516;2023-10-19T11:50:03;14.73;;;6.83;;
69419;SDS011;71621;52.030;113.516;2023-10-19T11:53:08;16.35;;;6.22;;
69419;SDS011;71621;52.030;113.516;2023-10-19T11:56:12;29.80;;;12.98;;
69419;SDS011;71621;52.030;113.516;2023-10-19T11:59:18;35.17;;;15.68;;
69419;SDS011;71621;52.030;113.516;2023-10-19T12:02:22;31.25;;;12.10;;
69419;SDS011;71621;52.030;113.516;2023-10-19T12:05:26;21.77;;;8.57;;
69419;SDS011;71621;52.030;113.516;2023-10-19T12:08:29;19.20;;;5.22;;
69419;SDS011;71621;52.030;113.516;2023-10-19T12:11:33;11.45;;;3.95;;
69419;SDS011;71621;52.030;113.516;2023-10-19T12:14:36;13.50;;;4.63;;
69419;SDS011;71621;52.030;113.516;2023-10-19T12:17:40;16.15;;;4.75;;
69419;SDS011;71621;52.030;113.516;2023-10-19T12:20:44;17.10;;;6.20;;
69419;SDS011;71621;52.030;113.516;2023-10-19T12:23:48;15.07;;;5.13;;
69419;SDS011;71621;52.030;113.516;2023-10-19T12:26:54;15.02;;;6.15;;
69419;SDS011;71621;52.030;113.516;2023-10-19T12:29:58;14.05;;;5.07;;
69419;SDS011;71621;52.030;113.516;2023-10-19T12:33:01;17.88;;;6.07;;
69419;SDS011;71621;52.030;113.516;2023-10-19T12:36:14;15.50;;;6.00;;
69419;SDS011;71621;52.030;113.516;2023-10-19T12:39:30;11.52;;;4.00;;
69419;SDS011;71621;52.030;113.516;2023-10-19T12:42:47;8.70;;;3.50;;
69419;SDS011;71621;52.030;113.516;2023-10-19T12:45:53;9.45;;;3.90;;
69419;SDS011;71621;52.030;113.516;2023-10-19T12:48:57;10.90;;;4.13;;
69419;SDS011;71621;52.030;113.516;2023-10-19T12:52:01;10.50;;;3.67;;
69419;SDS011;71621;52.030;113.516;2023-10-19T12:55:09;10.98;;;3.80;;
69419;SDS011;71621;52.030;113.516;2023-10-19T12:58:13;11.18;;;3.75;;
69419;SDS011;71621;52.030;113.516;2023-10-19T13:01:22;11.55;;;4.55;;
69419;SDS011;71621;52.030;113.516;2023-10-19T13:04:25;9.80;;;3.67;;
69419;SDS011;71621;52.030;113.516;2023-10-19T13:07:32;12.37;;;3.77;;
69419;SDS011;71621;52.030;113.516;2023-10-19T13:10:37;14.23;;;4.55;;
69419;SDS011;71621;52.030;113.516;2023-10-19T13:13:42;45.95;;;17.40;;
69419;SDS011;71621;52.030;113.516;2023-10-19T13:16:46;26.85;;;8.30;;
69419;SDS011;71621;52.030;113.516;2023-10-19T13:19:52;50.15;;;16.30;;
69419;SDS011;71621;52.030;113.516;2023-10-19T13:23:00;27.27;;;10.10;;
69419;SDS011;71621;52.030;113.516;2023-10-19T13:26:05;27.80;;;12.45;;
69419;SDS011;71621;52.030;113.516;2023-10-19T13:29:29;18.27;;;10.20;;
69419;SDS011;71621;52.030;113.516;2023-10-19T13:32:40;9.45;;;4.20;;
69419;SDS011;71621;52.030;113.516;2023-10-19T13:35:46;11.55;;;4.63;;
69419;SDS011;71621;52.030;113.516;2023-10-19T13:38:51;10.70;;;3.80;;
69419;SDS011;71621;52.030;113.516;2023-10-19T13:41:54;11.57;;;4.10;;
69419;SDS011;71621;52.030;113.516;2023-10-19T13:44:58;12.18;;;4.97;;
69419;SDS011;71621;52.030;113.516;2023-10-19T13:48:04;12.05;;;3.90;;
69419;SDS011;71621;52.030;113.516;2023-10-19T13:51:09;9.00;;;3.78;;
69419;SDS011;71621;52.030;113.516;2023-10-19T13:54:16;13.83;;;4.00;;
69419;SDS011;71621;52.030;113.516;2023-10-19T13:57:20;11.90;;;3.80;;
69419;SDS011;71621;52.030;113.516;2023-10-19T14:00:24;13.27;;;4.03;;
69419;SDS011;71621;52.030;113.516;2023-10-19T14:03:33;13.73;;;3.50;;
69419;SDS011;71621;52.030;113.516;2023-10-19T14:06:37;12.00;;;4.00;;
69419;SDS011;71621;52.030;113.516;2023-10-19T14:09:41;13.17;;;4.23;;
69419;SDS011;71621;52.030;113.516;2023-10-19T14:12:44;10.65;;;3.95;;
69419;SDS011;71621;52.030;113.516;2023-10-19T14:15:49;14.30;;;3.42;;
69419;SDS011;71621;52.030;113.516;2023-10-19T14:18:52;14.07;;;3.58;;
69419;SDS011;71621;52.030;113.516;2023-10-19T14:21:56;10.55;;;4.10;;
69419;SDS011;71621;52.030;113.516;2023-10-19T14:25:00;13.00;;;4.30;;
69419;SDS011;71621;52.030;113.516;2023-10-19T14:28:04;13.57;;;4.90;;
69419;SDS011;71621;52.030;113.516;2023-10-19T14:31:09;16.25;;;5.65;;
69419;SDS011;71621;52.030;113.516;2023-10-19T14:34:14;13.00;;;4.22;;
69419;SDS011;71621;52.030;113.516;2023-10-19T14:37:19;13.43;;;5.20;;
69419;SDS011;71621;52.030;113.516;2023-10-19T14:40:23;18.97;;;6.30;;
69419;SDS011;71621;52.030;113.516;2023-10-19T14:43:27;11.00;;;4.90;;
69419;SDS011;71621;52.030;113.516;2023-10-19T14:46:35;12.13;;;4.05;;
69419;SDS011;71621;52.030;113.516;2023-10-19T14:49:39;10.52;;;3.60;;
69419;SDS011;71621;52.030;113.516;2023-10-19T14:52:43;15.43;;;5.35;;
69419;SDS011;71621;52.030;113.516;2023-10-19T14:55:48;7.90;;;2.70;;
69419;SDS011;71621;52.030;113.516;2023-10-19T14:58:51;9.38;;;2.38;;
69419;SDS011;71621;52.030;113.516;2023-10-19T15:01:56;9.43;;;2.40;;
69419;SDS011;71621;52.030;113.516;2023-10-19T15:05:00;12.82;;;2.60;;
69419;SDS011;71621;52.030;113.516;2023-10-19T15:08:07;14.15;;;2.70;;
69419;SDS011;71621;52.030;113.516;2023-10-19T15:11:15;8.93;;;2.40;;
69419;SDS011;71621;52.030;113.516;2023-10-19T15:14:20;11.23;;;2.03;;
69419;SDS011;71621;52.030;113.516;2023-10-19T15:17:24;8.18;;;2.40;;
69419;SDS011;71621;52.030;113.516;2023-10-19T15:20:28;7.68;;;2.42;;
69419;SDS011;71621;52.030;113.516;2023-10-19T15:23:33;7.97;;;2.35;;
69419;SDS011;71621;52.030;113.516;2023-10-19T15:26:38;5.47;;;1.60;;
69419;SDS011;71621;52.030;113.516;2023-10-19T15:29:42;6.97;;;2.13;;
69419;SDS011;71621;52.030;113.516;2023-10-19T15:32:46;7.93;;;2.05;;
69419;SDS011;71621;52.030;113.516;2023-10-19T15:35:51;6.72;;;1.40;;
69419;SDS011;71621;52.030;113.516;2023-10-19T15:38:54;6.97;;;2.00;;
69419;SDS011;71621;52.030;113.516;2023-10-19T15:41:57;5.47;;;1.23;;
69419;SDS011;71621;52.030;113.516;2023-10-19T15:45:01;3.92;;;1.30;;
69419;SDS011;71621;52.030;113.516;2023-10-19T15:48:05;4.28;;;1.23;;
69419;SDS011;71621;52.030;113.516;2023-10-19T15:51:12;5.55;;;1.30;;
69419;SDS011;71621;52.030;113.516;2023-10-19T15:54:16;5.20;;;1.40;;
69419;SDS011;71621;52.030;113.516;2023-10-19T15:57:19;4.17;;;1.10;;
69419;SDS011;71621;52.030;113.516;2023-10-19T16:00:23;7.35;;;1.75;;
69419;SDS011;71621;52.030;113.516;2023-10-19T16:03:27;5.30;;;1.48;;
69419;SDS011;71621;52.030;113.516;2023-10-19T16:06:31;5.93;;;1.45;;
69419;SDS011;71621;52.030;113.516;2023-10-19T16:09:34;4.13;;;1.00;;
69419;SDS011;71621;52.030;113.516;2023-10-19T16:12:38;6.57;;;1.30;;
69419;SDS011;71621;52.030;113.516;2023-10-19T16:15:43;5.78;;;1.35;;
69419;SDS011;71621;52.030;113.516;2023-10-19T16:18:46;3.38;;;1.00;;
69419;SDS011;71621;52.030;113.516;2023-10-19T16:21:50;3.05;;;0.52;;
69419;SDS011;71621;52.030;113.516;2023-10-19T16:24:54;6.05;;;1.00;;
69419;SDS011;71621;52.030;113.516;2023-10-19T16:27:57;3.93;;;1.10;;
69419;SDS011;71621;52.030;113.516;2023-10-19T16:31:01;3.42;;;1.08;;
69419;SDS011;71621;52.030;113.516;2023-10-19T16:34:07;3.17;;;1.00;;
69419;SDS011;71621;52.030;113.516;2023-10-19T16:37:11;5.35;;;1.33;;
69419;SDS011;71621;52.030;113.516;2023-10-19T16:40:15;5.50;;;1.58;;
69419;SDS011;71621;52.030;113.516;2023-10-19T16:43:18;8.20;;;1.70;;
69419;SDS011;71621;52.030;113.516;2023-10-19T16:46:22;5.45;;;1.45;;
69419;SDS011;71621;52.030;113.516;2023-10-19T16:49:26;6.30;;;1.27;;
69419;SDS011;71621;52.030;113.516;2023-10-19T16:52:29;4.90;;;1.33;;
69419;SDS011;71621;52.030;113.516;2023-10-19T16:55:34;4.65;;;0.93;;
69419;SDS011;71621;52.030;113.516;2023-10-19T16:58:38;4.40;;;0.80;;
69419;SDS011;71621;52.030;113.516;2023-10-19T17:01:42;3.83;;;0.95;;
69419;SDS011;71621;52.030;113.516;2023-10-19T17:04:49;5.80;;;1.20;;
69419;SDS011;71621;52.030;113.516;2023-10-19T17:07:55;3.20;;;0.80;;
69419;SDS011;71621;52.030;113.516;2023-10-19T17:11:00;4.10;;;0.95;;
69419;SDS011;71621;52.030;113.516;2023-10-19T17:14:06;4.97;;;1.20;;
69419;SDS011;71621;52.030;113.516;2023-10-19T17:17:10;3.35;;;0.90;;
69419;SDS011;71621;52.030;113.516;2023-10-19T17:20:14;3.42;;;0.90;;
69419;SDS011;71621;52.030;113.516;2023-10-19T17:23:18;3.58;;;0.88;;
69419;SDS011;71621;52.030;113.516;2023-10-19T17:26:22;3.90;;;0.75;;
69419;SDS011;71621;52.030;113.516;2023-10-19T17:29:26;6.23;;;0.87;;
69419;SDS011;71621;52.030;113.516;2023-10-19T17:32:29;3.92;;;0.90;;
69419;SDS011;71621;52.030;113.516;2023-10-19T17:35:33;5.18;;;1.02;;
69419;SDS011;71621;52.030;113.516;2023-10-19T17:38:40;5.97;;;1.20;;
69419;SDS011;71621;52.030;113.516;2023-10-19T17:41:44;3.35;;;0.75;;
69419;SDS011;71621;52.030;113.516;2023-10-19T17:44:50;3.70;;;0.80;;
69419;SDS011;71621;52.030;113.516;2023-10-19T17:47:54;3.78;;;1.00;;
69419;SDS011;71621;52.030;113.516;2023-10-19T17:50:58;5.05;;;0.90;;
69419;SDS011;71621;52.030;113.516;2023-10-19T17:54:06;3.60;;;0.85;;
69419;SDS011;71621;52.030;113.516;2023-10-19T17:57:11;4.53;;;1.10;;
69419;SDS011;71621;52.030;113.516;2023-10-19T18:00:17;5.50;;;1.23;;
69419;SDS011;71621;52.030;113.516;2023-10-19T18:03:22;4.00;;;1.05;;
69419;SDS011;71621;52.030;113.516;2023-10-19T18:06:27;3.70;;;0.95;;
69419;SDS011;71621;52.030;113.516;2023-10-19T18:09:32;4.40;;;1.33;;
69419;SDS011;71621;52.030;113.516;2023-10-19T18:12:35;3.20;;;0.88;;